Boulder Creek, California
Current Conditions -  °F | °C
As of 5:53 AM on Monday 20 Oct 2014 (Local Time) from KSJC Reporting Station
Scattered Clouds Scattered Clouds  
Wind Chill: 61°   Ceiling: Unl
Heat Index: 61°   Visibility: 10mi
Dew Point: 55°   Wind: 7mph
Humidity: 81%   Direction: 110°ESE
Pressure: 29.92"   Gusts: NA
Location:  37.13°N, 122.12°W
Report Text: KSJC 201253Z 11006KT 10SM FEW009 SCT023 16/13 A2992 RMK AO2 SLP131 T01610128
Loading
Personal Weather Stations






























Interactive Weather Map
Tropical Storm Tracking
New forecast layout! Learn more

10-Day Weather Forecast

Advertisements
Track Severe Weather on mobile